Terminal Aerodrome Forecast
Issued by NWS

Home | Current Version | Previous Version | Text Only | Print | Product List | Glossary On
Versions: 1 2 3 4 5 6 7 8 9 10 11 12 13 14 15 16 17 18 19 20 21 22 23 24 25
000
FTUS41 KRLX 010800 AAA
TAFCKB
TAF AMD
KCKB 010825Z 0108/0206 00000KT 6SM -SHRA BR VCTS SCT008 OVC015CB
      TEMPO 0108/0110 4SM SHRA BR BKN008
     FM011000 00000KT 4SM BR OVC007
     FM011400 22004KT 6SM BR BKN015
     FM011600 23007KT P6SM BKN030
     FM011800 24008KT P6SM BKN035
     FM012000 23007KT P6SM SCT040
     FM020100 21002KT P6SM SCT035=

USA.gov is the U.S. government's official web portal to all federal, state and local government web resources and services.